createdAt,value
2022-07-29T00:00:40.490Z,86.20
2022-07-29T00:01:40.442Z,86.30
2022-07-29T00:02:40.532Z,86.40
2022-07-29T00:03:40.477Z,86.50
2022-07-29T00:04:40.502Z,86.50
2022-07-29T00:05:40.424Z,86.65
2022-07-29T00:06:40.395Z,86.40
2022-07-29T00:07:40.384Z,86.40
2022-07-29T00:08:40.375Z,86.40
2022-07-29T00:09:50.685Z,86.30
2022-07-29T00:10:40.382Z,86.10
2022-07-29T00:11:40.339Z,86.00
2022-07-29T00:12:40.334Z,85.90
2022-07-29T00:13:40.319Z,86.00
2022-07-29T00:14:40.313Z,85.90
2022-07-29T00:15:40.320Z,86.20
2022-07-29T00:16:40.361Z,86.10
2022-07-29T00:17:40.279Z,86.20
2022-07-29T00:18:40.271Z,86.30
2022-07-29T00:19:43.798Z,86.65
2022-07-29T00:20:40.282Z,86.74
2022-07-29T00:21:40.238Z,86.94
2022-07-29T00:22:40.233Z,87.15
2022-07-29T00:23:40.216Z,87.35
2022-07-29T00:24:40.210Z,87.45
2022-07-29T00:25:40.229Z,87.75
2022-07-29T00:26:40.199Z,87.95
2022-07-29T00:27:40.174Z,88.19
2022-07-29T00:28:40.171Z,88.49
2022-07-29T00:29:40.159Z,88.70
2022-07-29T00:30:40.174Z,88.79
2022-07-29T00:31:40.170Z,88.90
2022-07-29T00:32:40.130Z,89.00
2022-07-29T00:33:40.116Z,89.10
2022-07-29T00:34:40.112Z,89.10
2022-07-29T00:35:40.114Z,89.00
2022-07-29T00:36:40.088Z,89.00
2022-07-29T00:37:40.075Z,89.10
2022-07-29T00:38:40.068Z,89.10
2022-07-29T00:39:40.099Z,89.10
2022-07-29T00:40:40.068Z,89.20
2022-07-29T00:41:40.023Z,89.20
2022-07-29T00:42:40.015Z,89.20
2022-07-29T00:43:40.000Z,89.30
2022-07-29T00:44:40.000Z,89.44
2022-07-29T00:45:40.003Z,89.54
2022-07-29T00:46:40.028Z,89.54
2022-07-29T00:47:39.960Z,89.75
2022-07-29T00:48:40.000Z,89.84
2022-07-29T00:49:39.942Z,89.95
2022-07-29T00:50:39.957Z,90.05
2022-07-29T00:51:39.921Z,90.05
2022-07-29T00:52:39.918Z,90.25
2022-07-29T00:53:39.897Z,90.25
2022-07-29T00:54:44.216Z,90.25
2022-07-29T00:55:39.913Z,90.15
2022-07-29T00:56:39.879Z,90.25
2022-07-29T00:57:39.857Z,90.15
2022-07-29T00:58:39.853Z,90.25
2022-07-29T00:59:39.858Z,90.15
2022-07-29T01:00:39.955Z,90.29
2022-07-29T01:01:39.901Z,90.39
2022-07-29T01:02:39.810Z,90.49
2022-07-29T01:03:39.795Z,90.49
2022-07-29T01:04:39.792Z,90.39
2022-07-29T01:05:50.741Z,90.39
2022-07-29T01:06:39.787Z,90.29
2022-07-29T01:07:39.754Z,90.49
2022-07-29T01:08:39.749Z,90.59
2022-07-29T01:09:46.457Z,90.69
2022-07-29T01:10:39.769Z,90.69
2022-07-29T01:11:39.715Z,90.79
2022-07-29T01:12:39.710Z,90.94
2022-07-29T01:13:39.695Z,90.94
2022-07-29T01:14:39.694Z,90.64
2022-07-29T01:15:39.704Z,90.73
2022-07-29T01:16:39.719Z,90.84
2022-07-29T01:17:39.653Z,90.84
2022-07-29T01:18:39.656Z,90.94
2022-07-29T01:19:39.632Z,90.94
2022-07-29T01:20:39.652Z,91.14
2022-07-29T01:21:39.615Z,91.14
2022-07-29T01:22:39.609Z,91.14
2022-07-29T01:23:39.593Z,91.14
2022-07-29T01:24:39.592Z,91.14
2022-07-29T01:25:39.593Z,91.49
2022-07-29T01:26:39.566Z,91.49
2022-07-29T01:27:39.549Z,91.58
2022-07-29T01:28:39.547Z,91.49
2022-07-29T01:29:40.517Z,91.58
2022-07-29T01:30:39.550Z,91.69
2022-07-29T01:31:46.403Z,91.78
2022-07-29T01:32:39.508Z,91.99
2022-07-29T01:33:39.489Z,92.09
2022-07-29T01:34:39.490Z,92.09
2022-07-29T01:35:39.496Z,91.99
2022-07-29T01:36:39.465Z,91.99
2022-07-29T01:37:39.452Z,92.09
2022-07-29T01:38:39.443Z,91.99
2022-07-29T01:39:39.427Z,92.09
2022-07-29T01:40:39.450Z,92.09
2022-07-29T01:41:39.410Z,92.19
2022-07-29T01:42:39.406Z,92.29
2022-07-29T01:43:39.386Z,92.39
2022-07-29T01:44:39.394Z,92.39
2022-07-29T01:45:39.400Z,92.29
2022-07-29T01:46:39.411Z,92.09
2022-07-29T01:47:39.349Z,91.99
2022-07-29T01:48:39.406Z,91.99
2022-07-29T01:49:39.328Z,91.99
2022-07-29T01:50:39.345Z,91.99
2022-07-29T01:51:39.305Z,92.09
2022-07-29T01:52:39.300Z,92.29
2022-07-29T01:53:39.288Z,92.19
2022-07-29T01:54:39.279Z,92.29
2022-07-29T01:55:39.289Z,92.29
2022-07-29T01:56:39.257Z,92.19
2022-07-29T01:57:39.251Z,92.19
2022-07-29T01:58:39.240Z,92.19
2022-07-29T01:59:39.225Z,92.09
2022-07-29T02:00:39.242Z,92.09
2022-07-29T02:01:39.243Z,92.09
2022-07-29T02:02:39.198Z,92.09
2022-07-29T02:03:39.187Z,92.09
2022-07-29T02:04:39.220Z,92.19
2022-07-29T02:05:39.184Z,92.33
2022-07-29T02:06:39.159Z,92.33
2022-07-29T02:07:39.145Z,92.54
2022-07-29T02:08:39.137Z,92.63
2022-07-29T02:09:39.127Z,92.74
2022-07-29T02:10:39.144Z,92.94
2022-07-29T02:11:39.103Z,92.94
2022-07-29T02:12:39.118Z,93.04
2022-07-29T02:13:39.078Z,93.04
2022-07-29T02:14:39.075Z,92.83
2022-07-29T02:15:39.162Z,92.83
2022-07-29T02:16:39.208Z,92.94
2022-07-29T02:17:39.045Z,92.94
2022-07-29T02:18:39.037Z,93.04
2022-07-29T02:19:39.028Z,93.24
2022-07-29T02:20:39.041Z,93.24
2022-07-29T02:21:39.001Z,93.24
2022-07-29T02:22:38.994Z,93.34
2022-07-29T02:23:45.298Z,93.44
2022-07-29T02:24:38.980Z,93.54
2022-07-29T02:25:38.979Z,93.74
2022-07-29T02:26:38.954Z,93.65
2022-07-29T02:27:38.940Z,93.44
2022-07-29T02:28:38.931Z,93.24
2022-07-29T02:29:38.916Z,93.24
2022-07-29T02:30:38.936Z,93.14
2022-07-29T02:31:38.985Z,93.24
2022-07-29T02:32:38.890Z,93.29
2022-07-29T02:33:38.878Z,93.38
2022-07-29T02:34:38.871Z,93.59
2022-07-29T02:35:38.879Z,93.59
2022-07-29T02:36:38.852Z,93.79
2022-07-29T02:37:38.835Z,93.89
2022-07-29T02:38:38.829Z,93.89
2022-07-29T02:39:38.821Z,93.79
2022-07-29T02:40:38.831Z,93.79
2022-07-29T02:41:38.798Z,93.79
2022-07-29T02:42:38.789Z,93.69
2022-07-29T02:43:38.775Z,93.69
2022-07-29T02:44:38.768Z,93.69
2022-07-29T02:45:38.799Z,93.69
2022-07-29T02:46:38.799Z,93.69
2022-07-29T02:47:41.505Z,93.79
2022-07-29T02:48:38.780Z,93.89
2022-07-29T02:49:38.732Z,94.09
2022-07-29T02:50:38.743Z,94.09
2022-07-29T02:51:41.427Z,94.19
2022-07-29T02:52:38.707Z,94.39
2022-07-29T02:53:38.686Z,94.54
2022-07-29T02:54:38.682Z,94.64
2022-07-29T02:55:38.691Z,94.64
2022-07-29T02:56:38.668Z,94.74
2022-07-29T02:57:54.104Z,94.84
2022-07-29T02:58:38.642Z,94.94
2022-07-29T02:59:38.623Z,95.04
2022-07-29T03:00:38.639Z,95.25
2022-07-29T03:01:38.643Z,95.14
2022-07-29T03:02:38.597Z,95.25
2022-07-29T03:03:38.583Z,95.25
2022-07-29T03:04:38.600Z,95.25
2022-07-29T03:05:38.583Z,95.14
2022-07-29T03:06:39.020Z,95.14
2022-07-29T03:07:38.540Z,95.14
2022-07-29T03:08:38.532Z,95.14
2022-07-29T03:09:38.520Z,95.14
2022-07-29T03:10:38.535Z,95.14
2022-07-29T03:11:42.417Z,95.14
2022-07-29T03:12:38.504Z,95.14
2022-07-29T03:13:38.477Z,95.04
2022-07-29T03:14:38.475Z,94.94
2022-07-29T03:15:38.539Z,95.04
2022-07-29T03:16:41.241Z,95.14
2022-07-29T03:17:38.434Z,95.14
2022-07-29T03:18:38.434Z,95.19
2022-07-29T03:19:38.418Z,95.49
2022-07-29T03:20:38.438Z,95.49
2022-07-29T03:21:38.395Z,95.49
2022-07-29T03:22:38.389Z,95.59
2022-07-29T03:23:38.375Z,95.79
2022-07-29T03:24:38.369Z,95.59
2022-07-29T03:25:38.380Z,95.70
2022-07-29T03:26:38.354Z,95.49
2022-07-29T03:27:38.335Z,95.49
2022-07-29T03:28:38.328Z,95.49
2022-07-29T03:29:38.315Z,95.49
2022-07-29T03:30:38.330Z,95.59
2022-07-29T03:31:38.348Z,95.59
2022-07-29T03:32:38.287Z,95.90
2022-07-29T03:33:38.274Z,96.00
2022-07-29T03:34:38.272Z,96.00
2022-07-29T03:35:38.275Z,96.25
2022-07-29T03:36:38.255Z,96.34
2022-07-29T03:37:38.232Z,96.45
2022-07-29T03:38:38.224Z,96.55
2022-07-29T03:39:38.219Z,96.65
2022-07-29T03:40:38.227Z,96.75
2022-07-29T03:41:38.198Z,96.85
2022-07-29T03:42:38.184Z,96.95
2022-07-29T03:43:38.176Z,96.95
2022-07-29T03:44:38.167Z,96.85
2022-07-29T03:45:38.178Z,96.85
2022-07-29T03:46:38.273Z,96.95
2022-07-29T03:47:49.727Z,97.05
2022-07-29T03:48:38.174Z,97.05
2022-07-29T03:49:38.113Z,97.05
2022-07-29T03:50:38.119Z,97.05
2022-07-29T03:51:38.101Z,96.95
2022-07-29T03:52:38.085Z,96.85
2022-07-29T03:53:38.076Z,96.95
2022-07-29T03:54:38.057Z,96.95
2022-07-29T03:55:38.070Z,97.05
2022-07-29T03:56:38.038Z,96.95
2022-07-29T03:57:38.030Z,97.05
2022-07-29T03:58:38.018Z,97.10
2022-07-29T03:59:38.009Z,96.95
2022-07-29T04:00:38.016Z,97.05
2022-07-29T04:01:38.033Z,97.10
2022-07-29T04:02:37.980Z,97.00
2022-07-29T04:03:38.036Z,96.59
2022-07-29T04:04:37.956Z,95.98
2022-07-29T04:05:37.975Z,95.74
2022-07-29T04:06:37.937Z,95.54
2022-07-29T04:07:37.929Z,95.43
2022-07-29T04:08:37.915Z,95.14
2022-07-29T04:09:37.907Z,95.14
2022-07-29T04:10:37.918Z,95.23
2022-07-29T04:12:03.511Z,95.14
2022-07-29T04:12:37.881Z,95.43
2022-07-29T04:13:37.867Z,95.64
2022-07-29T04:14:37.855Z,95.74
2022-07-29T04:15:37.900Z,95.84
2022-07-29T04:16:37.831Z,95.84
2022-07-29T04:17:37.826Z,95.54
2022-07-29T04:18:37.811Z,95.54
2022-07-29T04:19:37.806Z,95.43
2022-07-29T04:20:37.811Z,95.23
2022-07-29T04:21:37.785Z,95.23
2022-07-29T04:22:37.777Z,95.14
2022-07-29T04:23:47.491Z,95.14
2022-07-29T04:24:37.757Z,95.03
2022-07-29T04:25:37.765Z,94.89
2022-07-29T04:26:37.731Z,94.79
2022-07-29T04:27:37.723Z,94.59
2022-07-29T04:28:37.708Z,94.38
2022-07-29T04:29:37.701Z,94.28
2022-07-29T04:30:37.714Z,94.18
2022-07-29T04:31:37.763Z,94.08
2022-07-29T04:32:37.674Z,94.08
2022-07-29T04:33:37.663Z,94.18
2022-07-29T04:34:37.649Z,94.08
2022-07-29T04:35:38.662Z,94.08
2022-07-29T04:36:37.635Z,93.98
2022-07-29T04:37:37.619Z,94.18
2022-07-29T04:38:37.604Z,94.18
2022-07-29T04:39:37.614Z,94.08
2022-07-29T04:40:38.616Z,94.08
2022-07-29T04:41:37.580Z,94.18
2022-07-29T04:42:42.006Z,94.38
2022-07-29T04:43:37.565Z,94.28
2022-07-29T04:44:39.715Z,94.38
2022-07-29T04:45:37.571Z,94.38
2022-07-29T04:46:37.708Z,94.38
2022-07-29T04:47:37.521Z,94.18
2022-07-29T04:48:37.583Z,94.28
2022-07-29T04:49:37.499Z,94.08
2022-07-29T04:50:37.503Z,94.04
2022-07-29T04:51:37.486Z,93.73
2022-07-29T04:52:37.475Z,93.53
2022-07-29T04:53:37.455Z,93.53
2022-07-29T04:54:37.442Z,93.33
2022-07-29T04:55:38.841Z,93.23
2022-07-29T04:56:37.986Z,93.23
2022-07-29T04:57:37.417Z,93.23
2022-07-29T04:58:37.404Z,93.23
2022-07-29T04:59:37.396Z,93.23
2022-07-29T05:00:37.404Z,93.23
2022-07-29T05:01:37.398Z,93.13
2022-07-29T05:02:37.474Z,93.13
2022-07-29T05:03:37.358Z,93.13
2022-07-29T05:04:37.341Z,93.23
2022-07-29T05:05:37.367Z,93.13
2022-07-29T05:06:37.321Z,93.13
2022-07-29T05:07:37.312Z,92.93
2022-07-29T05:08:37.299Z,92.93
2022-07-29T05:09:37.291Z,92.93
2022-07-29T05:10:37.305Z,92.93
2022-07-29T05:11:37.277Z,92.52
2022-07-29T05:12:37.264Z,92.68
2022-07-29T05:13:45.247Z,91.97
2022-07-29T05:14:37.246Z,91.97
2022-07-29T05:15:37.293Z,91.47
2022-07-29T05:16:37.235Z,91.13
2022-07-29T05:17:37.210Z,91.02
2022-07-29T05:18:37.209Z,91.02
2022-07-29T05:19:39.543Z,90.22
2022-07-29T05:20:37.205Z,90.17
2022-07-29T05:21:37.171Z,90.17
2022-07-29T05:22:37.160Z,89.47
2022-07-29T05:23:37.155Z,89.47
2022-07-29T05:24:37.133Z,89.06
2022-07-29T05:25:44.266Z,88.56
2022-07-29T05:26:37.119Z,88.62
2022-07-29T05:27:37.124Z,88.72
2022-07-29T05:28:37.095Z,88.72
2022-07-29T05:29:44.863Z,88.52
2022-07-29T05:30:37.136Z,88.96
2022-07-29T05:31:37.067Z,88.96
2022-07-29T05:32:37.052Z,88.82
2022-07-29T05:33:37.293Z,88.62
2022-07-29T05:34:37.030Z,87.77
2022-07-29T05:35:37.042Z,87.67
2022-07-29T05:36:37.051Z,87.17
2022-07-29T05:37:37.020Z,87.07
2022-07-29T05:38:37.312Z,86.97
2022-07-29T05:39:48.467Z,87.07
2022-07-29T05:40:36.986Z,87.37
2022-07-29T05:41:36.992Z,86.97
2022-07-29T05:42:36.952Z,87.13
2022-07-29T05:43:36.943Z,86.83
2022-07-29T05:44:36.928Z,86.22
2022-07-29T05:45:50.036Z,86.22
2022-07-29T05:46:37.253Z,85.58
2022-07-29T05:47:36.907Z,84.88
2022-07-29T05:48:36.961Z,85.03
2022-07-29T05:49:36.983Z,84.33
2022-07-29T05:50:36.871Z,84.09
2022-07-29T05:51:36.891Z,82.54
2022-07-29T05:52:36.849Z,82.95
2022-07-29T05:53:36.859Z,82.04
2022-07-29T05:54:36.836Z,81.24
2022-07-29T05:55:36.822Z,81.80
2022-07-29T05:56:36.831Z,81.40
2022-07-29T05:57:36.805Z,80.66
2022-07-29T05:58:37.655Z,80.36
2022-07-29T05:59:36.786Z,80.36
2022-07-29T06:00:36.767Z,80.56
2022-07-29T06:01:36.812Z,80.30
2022-07-29T06:02:36.749Z,81.00
2022-07-29T06:03:36.778Z,80.96
2022-07-29T06:04:36.806Z,81.06
2022-07-29T06:05:36.721Z,79.75
2022-07-29T06:06:36.736Z,79.32
2022-07-29T06:07:36.702Z,77.67
2022-07-29T06:08:36.683Z,77.98
2022-07-29T06:09:36.679Z,77.54
2022-07-29T06:10:36.694Z,76.80
2022-07-29T06:11:36.682Z,76.34
2022-07-29T06:12:36.642Z,76.34
2022-07-29T06:13:36.660Z,76.94
2022-07-29T06:14:36.624Z,77.30
2022-07-29T06:15:36.685Z,76.50
2022-07-29T06:16:36.737Z,76.10
2022-07-29T06:17:36.613Z,76.43
2022-07-29T06:18:36.591Z,77.00
2022-07-29T06:19:36.576Z,77.10
2022-07-29T06:20:36.728Z,76.90
2022-07-29T06:21:41.888Z,76.80
2022-07-29T06:22:36.756Z,76.60
2022-07-29T06:23:36.544Z,76.26
2022-07-29T06:24:36.525Z,75.06
2022-07-29T06:25:36.521Z,75.06
2022-07-29T06:26:39.657Z,74.87
2022-07-29T06:27:36.501Z,75.06
2022-07-29T06:28:36.537Z,74.96
2022-07-29T06:29:36.599Z,75.16
2022-07-29T06:30:36.543Z,74.80
2022-07-29T06:31:36.456Z,75.40
2022-07-29T06:32:41.327Z,75.56
2022-07-29T06:33:36.593Z,75.46
2022-07-29T06:34:36.425Z,74.73
2022-07-29T06:35:39.194Z,74.53
2022-07-29T06:36:36.409Z,73.93
2022-07-29T06:37:36.400Z,73.83
2022-07-29T06:38:37.450Z,73.39
2022-07-29T06:39:36.442Z,73.36
2022-07-29T06:40:36.598Z,72.52
2022-07-29T06:41:40.558Z,71.83
2022-07-29T06:42:38.997Z,72.13
2022-07-29T06:43:51.718Z,71.92
2022-07-29T06:44:39.958Z,71.39
2022-07-29T06:45:39.934Z,70.59
2022-07-29T06:46:36.394Z,70.65
2022-07-29T06:47:36.346Z,71.06
2022-07-29T06:48:36.550Z,68.93
2022-07-29T06:49:36.275Z,69.32
2022-07-29T06:50:36.343Z,69.53
2022-07-29T06:51:38.066Z,68.99
2022-07-29T06:52:37.319Z,67.60
2022-07-29T06:53:36.235Z,68.60
2022-07-29T06:54:36.783Z,67.86
2022-07-29T06:55:36.648Z,68.00
2022-07-29T06:56:39.478Z,68.30
2022-07-29T06:57:36.215Z,68.49
2022-07-29T06:58:36.179Z,68.10
2022-07-29T06:59:36.272Z,68.03
2022-07-29T07:00:36.822Z,68.43
2022-07-29T07:01:36.310Z,70.32
2022-07-29T07:02:36.200Z,68.63
2022-07-29T07:03:36.137Z,68.23
2022-07-29T07:04:36.124Z,68.06
2022-07-29T07:05:36.193Z,68.86
2022-07-29T07:06:37.022Z,69.73
2022-07-29T07:07:36.093Z,69.43
2022-07-29T07:08:36.081Z,68.83
2022-07-29T07:09:40.689Z,67.83
2022-07-29T07:10:36.137Z,67.43
2022-07-29T07:11:36.075Z,68.43
2022-07-29T07:12:36.043Z,67.83
2022-07-29T07:13:36.844Z,68.53
2022-07-29T07:14:36.019Z,68.79
2022-07-29T07:15:38.792Z,67.50
2022-07-29T07:16:36.040Z,66.37
2022-07-29T07:17:35.996Z,66.20
2022-07-29T07:18:35.985Z,65.31
2022-07-29T07:19:35.982Z,65.48
2022-07-29T07:20:36.218Z,64.78
2022-07-29T07:21:36.128Z,64.36
2022-07-29T07:22:38.867Z,64.03
2022-07-29T07:23:35.934Z,63.73
2022-07-29T07:24:35.923Z,63.00
2022-07-29T07:25:35.953Z,63.10
2022-07-29T07:26:35.984Z,62.97
2022-07-29T07:27:35.970Z,63.57
2022-07-29T07:28:35.884Z,62.12
2022-07-29T07:29:35.913Z,61.19
2022-07-29T07:30:35.867Z,61.39
2022-07-29T07:31:35.938Z,59.48
2022-07-29T07:32:35.847Z,58.81
2022-07-29T07:33:35.837Z,60.20
2022-07-29T07:34:35.825Z,58.91
2022-07-29T07:35:35.857Z,59.83
2022-07-29T07:36:35.923Z,59.83
2022-07-29T07:37:35.802Z,60.72
2022-07-29T07:38:35.789Z,60.33
2022-07-29T07:39:35.838Z,60.72
2022-07-29T07:40:35.790Z,59.86
2022-07-29T07:41:36.023Z,59.69
2022-07-29T07:42:35.743Z,61.25
2022-07-29T07:43:35.742Z,59.96
2022-07-29T07:44:51.314Z,59.56
2022-07-29T07:45:35.783Z,60.53
2022-07-29T07:46:35.725Z,59.34
2022-07-29T07:47:35.707Z,57.55
2022-07-29T07:48:35.689Z,58.22
2022-07-29T07:49:35.680Z,58.34
2022-07-29T07:50:35.709Z,57.53
2022-07-29T07:51:35.669Z,56.90
2022-07-29T07:52:35.649Z,56.68
2022-07-29T07:53:35.643Z,55.78
2022-07-29T07:54:35.632Z,56.68
2022-07-29T07:56:00.371Z,56.25
2022-07-29T07:56:35.638Z,55.04
2022-07-29T07:57:35.601Z,54.07
2022-07-29T07:58:35.593Z,56.23
2022-07-29T07:59:35.580Z,55.60
2022-07-29T08:00:35.609Z,53.63
2022-07-29T08:01:48.137Z,54.19
2022-07-29T08:02:35.630Z,54.17
2022-07-29T08:03:35.540Z,52.56
2022-07-29T08:04:35.624Z,52.36
2022-07-29T08:05:35.543Z,50.29
2022-07-29T08:06:35.518Z,48.88
2022-07-29T08:07:35.517Z,49.45
2022-07-29T08:08:35.496Z,48.22
2022-07-29T08:09:36.174Z,49.04
2022-07-29T08:10:35.503Z,45.68
2022-07-29T08:11:37.736Z,45.67
2022-07-29T08:12:35.463Z,44.05
2022-07-29T08:13:35.460Z,44.22
2022-07-29T08:14:35.437Z,43.80
2022-07-29T08:15:35.454Z,42.57
2022-07-29T08:16:35.542Z,41.15
2022-07-29T08:17:35.640Z,41.25
2022-07-29T08:18:35.401Z,41.21
2022-07-29T08:19:35.449Z,42.29
2022-07-29T08:20:35.417Z,42.04
2022-07-29T08:21:35.391Z,41.77
2022-07-29T08:22:35.368Z,43.40
2022-07-29T08:23:46.831Z,44.51
2022-07-29T08:24:35.349Z,45.02
2022-07-29T08:25:38.589Z,45.34
2022-07-29T08:26:35.328Z,45.81
2022-07-29T08:27:44.028Z,47.38
2022-07-29T08:28:35.313Z,47.21
2022-07-29T08:29:35.295Z,48.59
2022-07-29T08:30:35.309Z,47.92
2022-07-29T08:31:35.332Z,47.23
2022-07-29T08:32:52.639Z,48.34
2022-07-29T08:33:35.265Z,48.46
2022-07-29T08:34:35.249Z,48.88
2022-07-29T08:35:36.429Z,49.45
2022-07-29T08:36:35.247Z,47.08
2022-07-29T08:37:35.221Z,48.75
2022-07-29T08:38:35.210Z,49.48
2022-07-29T08:39:35.199Z,48.78
2022-07-29T08:40:35.220Z,49.18
2022-07-29T08:41:35.206Z,48.80
2022-07-29T08:42:35.174Z,49.10
2022-07-29T08:43:35.161Z,50.26
2022-07-29T08:44:35.156Z,50.04
2022-07-29T08:45:35.227Z,49.65
2022-07-29T08:46:35.135Z,47.38
2022-07-29T08:47:35.126Z,47.79
2022-07-29T08:48:35.118Z,48.49
2022-07-29T08:49:35.104Z,48.88
2022-07-29T08:50:35.122Z,47.62
2022-07-29T08:51:35.082Z,48.51
2022-07-29T08:52:35.087Z,49.27
2022-07-29T08:53:35.066Z,48.49
2022-07-29T08:54:35.060Z,48.09
2022-07-29T08:55:35.071Z,47.50
2022-07-29T08:56:35.041Z,48.39
2022-07-29T08:57:35.029Z,49.37
2022-07-29T08:58:36.621Z,49.27
2022-07-29T08:59:35.024Z,47.18
2022-07-29T09:00:35.039Z,46.81
2022-07-29T09:01:36.782Z,47.91
2022-07-29T09:02:35.005Z,47.50
2022-07-29T09:03:35.043Z,46.53
2022-07-29T09:04:34.970Z,48.14
2022-07-29T09:05:39.679Z,49.82
2022-07-29T09:06:34.954Z,47.34
2022-07-29T09:07:34.964Z,48.06
2022-07-29T09:08:34.927Z,47.66
2022-07-29T09:09:34.913Z,49.15
2022-07-29T09:10:34.931Z,50.34
2022-07-29T09:11:34.891Z,48.14
2022-07-29T09:12:37.930Z,49.15
2022-07-29T09:13:34.874Z,48.43
2022-07-29T09:14:34.870Z,47.74
2022-07-29T09:15:34.878Z,48.83
2022-07-29T09:16:52.269Z,49.20
2022-07-29T09:17:34.878Z,47.52
2022-07-29T09:18:34.832Z,47.03
2022-07-29T09:19:34.821Z,49.20
2022-07-29T09:20:34.838Z,49.20
2022-07-29T09:21:34.799Z,47.03
2022-07-29T09:22:38.802Z,46.44
2022-07-29T09:23:34.785Z,48.21
2022-07-29T09:24:34.778Z,47.32
2022-07-29T09:25:34.783Z,48.51
2022-07-29T09:26:34.752Z,48.31
2022-07-29T09:27:34.739Z,46.75
2022-07-29T09:28:34.732Z,48.53
2022-07-29T09:29:36.390Z,47.37
2022-07-29T09:30:34.741Z,48.26
2022-07-29T09:31:34.749Z,49.74
2022-07-29T09:32:34.696Z,48.95
2022-07-29T09:33:34.681Z,48.85
2022-07-29T09:34:34.677Z,49.35
2022-07-29T09:35:34.687Z,50.04
2022-07-29T09:36:34.657Z,49.37
2022-07-29T09:37:34.652Z,48.08
2022-07-29T09:38:34.637Z,48.46
2022-07-29T09:39:34.625Z,48.03
2022-07-29T09:40:34.636Z,47.60
2022-07-29T09:41:34.604Z,44.96
2022-07-29T09:42:34.598Z,44.53
2022-07-29T09:43:34.591Z,43.40
2022-07-29T09:44:34.577Z,42.89
2022-07-29T09:45:34.590Z,41.29
2022-07-29T09:46:34.628Z,42.35
2022-07-29T09:47:34.549Z,42.47
2022-07-29T09:48:34.549Z,41.00
2022-07-29T09:49:34.528Z,40.37
2022-07-29T09:50:34.554Z,40.76
2022-07-29T09:51:38.185Z,40.98
2022-07-29T09:52:34.507Z,41.16
2022-07-29T09:53:34.493Z,39.15
2022-07-29T09:54:34.490Z,37.13
2022-07-29T09:55:34.502Z,37.61
2022-07-29T09:56:34.492Z,37.19
2022-07-29T09:57:34.458Z,35.61
2022-07-29T09:58:34.454Z,36.16
2022-07-29T09:59:34.444Z,38.13
2022-07-29T10:00:34.484Z,37.78
2022-07-29T10:01:34.443Z,38.48
2022-07-29T10:02:34.418Z,39.11
2022-07-29T10:03:34.440Z,39.60
2022-07-29T10:04:34.403Z,39.21
2022-07-29T10:05:36.248Z,39.29
2022-07-29T10:06:34.418Z,40.16
2022-07-29T10:07:34.370Z,40.82
2022-07-29T10:08:34.364Z,40.21
2022-07-29T10:09:34.353Z,39.07
2022-07-29T10:10:34.352Z,39.40
2022-07-29T10:11:48.351Z,40.61
2022-07-29T10:12:34.338Z,40.48
2022-07-29T10:13:34.322Z,39.07
2022-07-29T10:14:34.318Z,40.16
2022-07-29T10:15:34.305Z,39.43
2022-07-29T10:16:34.488Z,39.03
2022-07-29T10:17:34.287Z,37.45
2022-07-29T10:18:34.282Z,36.65
2022-07-29T10:19:34.272Z,37.74
2022-07-29T10:20:34.265Z,36.82
2022-07-29T10:21:35.197Z,35.83
2022-07-29T10:22:52.475Z,36.53
2022-07-29T10:23:46.303Z,35.35
2022-07-29T10:24:34.238Z,34.93
2022-07-29T10:25:34.218Z,34.01
2022-07-29T10:26:34.245Z,33.90
2022-07-29T10:27:34.222Z,33.20
2022-07-29T10:28:34.226Z,33.18
2022-07-29T10:29:34.199Z,33.46
2022-07-29T10:30:34.190Z,31.87
2022-07-29T10:31:34.270Z,30.85
2022-07-29T10:32:34.174Z,31.28
2022-07-29T10:33:34.160Z,32.97
2022-07-29T10:34:34.155Z,33.09
2022-07-29T10:35:34.145Z,32.31
2022-07-29T10:36:34.165Z,32.78
2022-07-29T10:37:36.139Z,32.16
2022-07-29T10:38:34.130Z,32.52
2022-07-29T10:39:41.768Z,31.27
2022-07-29T10:40:34.117Z,31.66
2022-07-29T10:41:43.868Z,31.96
2022-07-29T10:42:34.839Z,33.93
2022-07-29T10:43:34.086Z,33.46
2022-07-29T10:44:34.086Z,34.26
2022-07-29T10:45:34.071Z,34.08
2022-07-29T10:46:34.152Z,34.50
2022-07-29T10:47:35.484Z,34.33
2022-07-29T10:48:34.049Z,34.94
2022-07-29T10:49:34.111Z,34.67
2022-07-29T10:50:34.041Z,35.37
2022-07-29T10:51:34.050Z,35.49
2022-07-29T10:52:34.017Z,35.82
2022-07-29T10:53:34.023Z,36.78
2022-07-29T10:54:34.003Z,36.57
2022-07-29T10:55:33.989Z,36.27
2022-07-29T10:56:34.006Z,36.08
2022-07-29T10:57:53.490Z,36.35
2022-07-29T10:58:33.973Z,35.55
2022-07-29T10:59:36.114Z,35.53
2022-07-29T11:00:33.954Z,35.04
2022-07-29T11:01:37.034Z,34.34
2022-07-29T11:02:42.179Z,34.24
2022-07-29T11:03:33.995Z,35.04
2022-07-29T11:04:33.918Z,35.35
2022-07-29T11:05:40.646Z,35.76
2022-07-29T11:06:33.931Z,37.13
2022-07-29T11:07:41.593Z,35.68
2022-07-29T11:08:33.891Z,37.15
2022-07-29T11:09:37.530Z,35.97
2022-07-29T11:10:33.866Z,37.13
2022-07-29T11:11:33.889Z,34.88
2022-07-29T11:12:33.850Z,35.10
2022-07-29T11:13:37.197Z,36.29
2022-07-29T11:14:33.837Z,35.49
2022-07-29T11:15:33.846Z,35.58
2022-07-29T11:16:33.813Z,35.06
2022-07-29T11:17:47.267Z,34.86
2022-07-29T11:18:33.807Z,35.85
2022-07-29T11:19:33.784Z,34.59
2022-07-29T11:20:33.788Z,34.70
2022-07-29T11:21:53.448Z,35.41
2022-07-29T11:22:33.769Z,35.89
2022-07-29T11:23:34.668Z,36.09
2022-07-29T11:24:35.109Z,36.99
2022-07-29T11:25:42.799Z,36.21
2022-07-29T11:26:33.792Z,36.51
2022-07-29T11:27:33.711Z,36.32
2022-07-29T11:28:33.737Z,36.63
2022-07-29T11:29:33.726Z,37.46
2022-07-29T11:30:33.701Z,37.85
2022-07-29T11:31:33.703Z,38.36
2022-07-29T11:32:33.683Z,37.59
2022-07-29T11:33:54.570Z,38.70
2022-07-29T12:07:15.313Z,42.38
2022-07-29T12:08:14.606Z,42.08
2022-07-29T12:09:14.753Z,42.38
2022-07-29T12:10:19.965Z,42.88
2022-07-29T12:11:12.398Z,42.40
2022-07-29T12:12:12.357Z,42.99
2022-07-29T12:13:12.530Z,43.69
2022-07-29T12:14:12.337Z,43.19
2022-07-29T12:15:12.322Z,43.59
2022-07-29T12:16:14.740Z,44.10
2022-07-29T12:17:12.315Z,43.21
2022-07-29T12:18:12.298Z,43.04
2022-07-29T12:19:12.286Z,44.10
2022-07-29T12:20:12.427Z,43.41
2022-07-29T12:21:12.418Z,43.80
2022-07-29T12:22:12.260Z,43.80
2022-07-29T12:23:12.248Z,43.79
2022-07-29T12:24:12.245Z,43.10
2022-07-29T12:25:33.999Z,43.10
2022-07-29T12:26:21.952Z,44.18
2022-07-29T12:27:12.219Z,42.99
2022-07-29T12:28:14.090Z,44.38
2022-07-29T12:29:15.518Z,43.88
2022-07-29T12:30:12.189Z,44.28
2022-07-29T12:31:12.298Z,43.39
2022-07-29T12:32:14.845Z,42.70
2022-07-29T12:33:12.160Z,42.99
2022-07-29T12:34:12.152Z,44.36
2022-07-29T12:35:12.131Z,42.68
2022-07-29T12:36:17.391Z,42.16
2022-07-29T12:37:12.131Z,42.56
2022-07-29T12:38:12.106Z,43.05
2022-07-29T12:39:12.096Z,42.26
2022-07-29T12:40:12.087Z,42.05
2022-07-29T12:41:12.103Z,42.34
2022-07-29T12:42:13.889Z,41.95
2022-07-29T12:43:12.054Z,41.87
2022-07-29T12:44:12.047Z,42.68
2022-07-29T12:45:12.038Z,42.97
2022-07-29T12:46:12.142Z,43.47
2022-07-29T12:47:12.021Z,42.58
2022-07-29T12:48:12.006Z,42.97
2022-07-29T12:49:12.211Z,42.38
2022-07-29T12:50:12.017Z,41.99
2022-07-29T12:51:12.188Z,42.29
2022-07-29T12:52:11.967Z,42.36
2022-07-29T12:53:11.962Z,41.77
2022-07-29T12:54:11.966Z,41.47
2022-07-29T12:55:11.943Z,40.98
2022-07-29T12:56:33.142Z,40.39
2022-07-29T12:57:20.310Z,41.17
2022-07-29T12:58:11.928Z,40.88
2022-07-29T12:59:11.905Z,40.98
2022-07-29T13:00:11.894Z,40.98
2022-07-29T13:01:17.135Z,41.47
2022-07-29T13:02:11.913Z,41.87
2022-07-29T13:03:11.864Z,42.07
2022-07-29T13:04:11.851Z,41.47
2022-07-29T13:05:11.846Z,41.17
2022-07-29T13:06:11.855Z,42.05
2022-07-29T13:07:11.825Z,42.34
2022-07-29T13:08:20.072Z,42.05
2022-07-29T13:09:11.826Z,41.17
2022-07-29T13:10:11.793Z,41.57
2022-07-29T13:11:11.789Z,41.47
2022-07-29T13:12:11.798Z,42.07
2022-07-29T13:13:11.768Z,44.64
2022-07-29T13:14:11.753Z,42.74
2022-07-29T13:15:11.747Z,41.53
2022-07-29T13:16:11.799Z,41.73
2022-07-29T13:17:11.757Z,41.53
2022-07-29T13:18:11.715Z,40.33
2022-07-29T13:19:11.712Z,40.62
2022-07-29T13:20:11.699Z,41.14
2022-07-29T13:21:11.694Z,40.33
2022-07-29T13:22:11.703Z,40.84
2022-07-29T13:23:11.671Z,40.03
2022-07-29T13:24:11.656Z,41.02
2022-07-29T13:25:11.652Z,40.33